Wells, NV (89835)

2:50 AM PDT on September 02, 2015 (GMT -0700)
Elko Regional | | Change Station
CLOSE
Current Station
Airport
Location: Elko,
Elevation: 5052 ft
Nearby Weather Stations
Active Advisory: Fire Weather Warning

Elev 5052 ft 40.82 °N, 115.79 °W | Updated 54 minutes ago

Clear
Clear
59 °F
Feels Like 59 °F
N
4
Wind Variable Wind from NNW

Today
High -- | Low -- °F
--% Chance of Precip.
Yesterday
High -- | Low -- °F
Precip. -- in
6:07 AM 7:11 PM
Waning Gibbous, 81% visible
Pressure 29.81 in
Visibility 10.0 miles
Clouds Clear
Dew Point 29 °F
Humidity 32%
Rainfall 0.00 in
Snow Depth Not available.
UV 0 out of 12
Pollen 9.70 out of 12
Air Quality Not available.
Flu Activity Not available.
METAR KEKO 020856Z AUTO 34003KT 10SM CLR 15/M02 A2999 RMK AO2 SLP095 T01501017 51010 $
Pressure 29.81 in
Visibility 10.0 miles
Clouds Clear
Dew Point 29 °F
Humidity 32%
Rainfall 0.00 in
Snow Depth Not available.
UV 0 out of 12
Pollen 9.70 out of 12
Air Quality Not available.
Flu Activity Not available.
METAR KEKO 020856Z AUTO 34003KT 10SM CLR 15/M02 A2999 RMK AO2 SLP095 T01501017 51010 $

10-Day Weather Forecast

×

Almanac

Astronomy

Sep. 02, 2015 Rise Set
Actual Time
Civil Twilight
Nautical Twilight
Astronomical Twilight
Moon
Length of Visible Light
Length of Day
Tomorrow will be .
, % of the Moon is Illuminated

Today's Extremes

State Highs State Lows

Community

WunderPhotos

Upload Photos

1,851,731 photos uploaded!

WunderBlogs® & News

Nearby

Air Quality

  Air Quality AQ Index Pollutant
Not available.

Snow Depth

Station Depth Elevation

Earthquake Activity

City Distance Mag. Time & Date
Minimum magnitude displayed is 2.5.

Coastal Water Temperatures

Place Temperature

Stations

Nearby Weather Stations

Station Location Temp. Windchill Dew Point Humidity Wind Precip. Elev Updated Type
                   
Fire Weather Warning
Statement as of 2:18 AM PDT on September 02, 2015

... Red flag warning remains in effect from 11 am this morning to
8 PM PDT this evening for gusty winds and low relative humidity
for fire weather zones 467... 468... 469 and 470...

* affected area... fire weather zone 467 central and western
Humboldt County... fire weather zone 468 eastern Humboldt
County and northwestern Elko County... fire weather zone 469
southwestern and central Elko County and fire weather zone 470
eastern Elko County.

* Winds... southwest 15 to 25 mph with gusts up to 40 mph.

* Relative humidity... as low as 9 percent.

* Impacts... the combination of gusty winds and low humidity will
create critical fire weather conditions.

Precautionary/preparedness actions...

A red flag warning means that critical fire weather conditions
are either occurring now... or will shortly. A combination of
strong winds... low relative humidity... and warm temperatures can
contribute to extreme fire behavior.